sensor_id;sensor_type;location;lat;lon;timestamp;pressure;altitude;pressure_sealevel;temperature;humidity
33506;BME280;19843;51.040;13.782;2023-07-31T00:00:53;100040.91;;;15.96;90.11
33506;BME280;19843;51.040;13.782;2023-07-31T00:03:21;100060.25;;;16.01;90.11
33506;BME280;19843;51.040;13.782;2023-07-31T00:05:49;100055.38;;;15.98;89.91
33506;BME280;19843;51.040;13.782;2023-07-31T00:08:16;100054.81;;;15.52;92.85
33506;BME280;19843;51.040;13.782;2023-07-31T00:10:44;100051.94;;;15.78;91.73
33506;BME280;19843;51.040;13.782;2023-07-31T00:13:13;100053.59;;;15.49;93.17
33506;BME280;19843;51.040;13.782;2023-07-31T00:15:40;100043.72;;;15.62;93.67
33506;BME280;19843;51.040;13.782;2023-07-31T00:18:08;100048.63;;;15.69;92.88
33506;BME280;19843;51.040;13.782;2023-07-31T00:20:35;100047.16;;;15.49;92.75
33506;BME280;19843;51.040;13.782;2023-07-31T00:23:03;100049.03;;;15.68;92.85
33506;BME280;19843;51.040;13.782;2023-07-31T00:25:30;100047.31;;;15.33;94.19
33506;BME280;19843;51.040;13.782;2023-07-31T00:27:58;100039.13;;;15.51;91.86
33506;BME280;19843;51.040;13.782;2023-07-31T00:30:27;100044.06;;;15.61;92.74
33506;BME280;19843;51.040;13.782;2023-07-31T00:32:54;100051.81;;;15.37;92.72
33506;BME280;19843;51.040;13.782;2023-07-31T00:35:22;100043.59;;;15.55;92.35
33506;BME280;19843;51.040;13.782;2023-07-31T00:37:49;100047.44;;;15.40;93.61
33506;BME280;19843;51.040;13.782;2023-07-31T00:40:17;100038.41;;;15.27;94.24
33506;BME280;19843;51.040;13.782;2023-07-31T00:42:44;100033.09;;;15.49;92.43
33506;BME280;19843;51.040;13.782;2023-07-31T00:45:12;100035.16;;;15.55;90.68
33506;BME280;19843;51.040;13.782;2023-07-31T00:47:41;100047.63;;;15.54;89.72
33506;BME280;19843;51.040;13.782;2023-07-31T00:50:09;100038.13;;;15.66;89.81
33506;BME280;19843;51.040;13.782;2023-07-31T00:52:37;100036.44;;;15.61;89.61
33506;BME280;19843;51.040;13.782;2023-07-31T00:55:05;100028.69;;;15.51;89.40
33506;BME280;19843;51.040;13.782;2023-07-31T00:57:33;100020.94;;;15.75;86.92
33506;BME280;19843;51.040;13.782;2023-07-31T01:00:02;100026.38;;;15.91;84.97
33506;BME280;19843;51.040;13.782;2023-07-31T01:02:30;100024.91;;;16.07;83.30
33506;BME280;19843;51.040;13.782;2023-07-31T01:04:59;100028.47;;;16.01;82.39
33506;BME280;19843;51.040;13.782;2023-07-31T01:07:35;100012.50;;;16.12;83.86
33506;BME280;19843;51.040;13.782;2023-07-31T01:10:11;100023.34;;;16.13;81.94
33506;BME280;19843;51.040;13.782;2023-07-31T01:12:41;100026.81;;;15.96;83.71
33506;BME280;19843;51.040;13.782;2023-07-31T01:15:09;100014.47;;;16.08;83.36
33506;BME280;19843;51.040;13.782;2023-07-31T01:17:37;100017.72;;;16.10;80.06
33506;BME280;19843;51.040;13.782;2023-07-31T01:20:10;100012.13;;;16.17;80.59
33506;BME280;19843;51.040;13.782;2023-07-31T01:22:54;100012.44;;;16.08;81.25
33506;BME280;19843;51.040;13.782;2023-07-31T01:25:45;100020.34;;;15.92;82.28
33506;BME280;19843;51.040;13.782;2023-07-31T01:28:19;100015.25;;;16.05;82.85
33506;BME280;19843;51.040;13.782;2023-07-31T01:30:48;100011.03;;;15.88;84.00
33506;BME280;19843;51.040;13.782;2023-07-31T01:33:16;100006.41;;;15.69;85.12
33506;BME280;19843;51.040;13.782;2023-07-31T01:35:45;100003.69;;;15.76;84.97
33506;BME280;19843;51.040;13.782;2023-07-31T01:38:13;100015.47;;;15.55;86.54
33506;BME280;19843;51.040;13.782;2023-07-31T01:40:41;100007.00;;;15.85;84.46
33506;BME280;19843;51.040;13.782;2023-07-31T01:43:10;99998.13;;;15.83;85.14
33506;BME280;19843;51.040;13.782;2023-07-31T01:45:38;100002.56;;;15.84;86.34
33506;BME280;19843;51.040;13.782;2023-07-31T01:48:05;99998.13;;;15.50;84.89
33506;BME280;19843;51.040;13.782;2023-07-31T01:50:33;100000.56;;;15.85;86.21
33506;BME280;19843;51.040;13.782;2023-07-31T01:53:01;99997.97;;;15.69;86.22
33506;BME280;19843;51.040;13.782;2023-07-31T01:55:28;99994.56;;;15.56;86.83
33506;BME280;19843;51.040;13.782;2023-07-31T01:57:56;100000.78;;;15.69;83.85
33506;BME280;19843;51.040;13.782;2023-07-31T02:00:24;99991.59;;;15.76;82.02
33506;BME280;19843;51.040;13.782;2023-07-31T02:02:52;99983.00;;;15.99;82.48
33506;BME280;19843;51.040;13.782;2023-07-31T02:05:20;99987.53;;;16.10;80.86
33506;BME280;19843;51.040;13.782;2023-07-31T02:07:48;99986.38;;;16.15;80.09
33506;BME280;19843;51.040;13.782;2023-07-31T02:10:16;99982.88;;;16.29;80.05
33506;BME280;19843;51.040;13.782;2023-07-31T02:12:43;99979.75;;;16.41;78.64
33506;BME280;19843;51.040;13.782;2023-07-31T02:15:11;99981.00;;;16.47;77.27
33506;BME280;19843;51.040;13.782;2023-07-31T02:17:40;99976.63;;;16.53;78.78
33506;BME280;19843;51.040;13.782;2023-07-31T02:20:08;99986.41;;;16.67;77.79
33506;BME280;19843;51.040;13.782;2023-07-31T02:22:36;99978.41;;;16.72;78.24
33506;BME280;19843;51.040;13.782;2023-07-31T02:25:04;99984.03;;;16.76;76.68
33506;BME280;19843;51.040;13.782;2023-07-31T02:27:31;99977.59;;;16.72;74.89
33506;BME280;19843;51.040;13.782;2023-07-31T02:29:59;99983.72;;;16.88;75.99
33506;BME280;19843;51.040;13.782;2023-07-31T02:32:27;99979.25;;;16.80;74.61
33506;BME280;19843;51.040;13.782;2023-07-31T02:34:56;99972.38;;;16.74;74.04
33506;BME280;19843;51.040;13.782;2023-07-31T02:37:25;99984.13;;;16.86;76.13
33506;BME280;19843;51.040;13.782;2023-07-31T02:39:55;99981.31;;;16.90;73.44
33506;BME280;19843;51.040;13.782;2023-07-31T02:42:22;99981.72;;;16.88;73.96
33506;BME280;19843;51.040;13.782;2023-07-31T02:44:50;99980.19;;;17.02;73.05
33506;BME280;19843;51.040;13.782;2023-07-31T02:47:22;99977.38;;;17.02;73.93
33506;BME280;19843;51.040;13.782;2023-07-31T02:49:49;99970.16;;;17.04;74.19
33506;BME280;19843;51.040;13.782;2023-07-31T02:52:18;99979.84;;;17.10;74.33
33506;BME280;19843;51.040;13.782;2023-07-31T02:54:46;99973.28;;;16.92;74.52
33506;BME280;19843;51.040;13.782;2023-07-31T02:57:13;99971.69;;;16.98;74.02
33506;BME280;19843;51.040;13.782;2023-07-31T02:59:42;99979.84;;;16.55;77.02
33506;BME280;19843;51.040;13.782;2023-07-31T03:02:09;99971.50;;;16.70;75.89
33506;BME280;19843;51.040;13.782;2023-07-31T03:04:38;99978.94;;;16.99;72.90
33506;BME280;19843;51.040;13.782;2023-07-31T03:07:06;99976.59;;;17.05;74.31
33506;BME280;19843;51.040;13.782;2023-07-31T03:09:35;99975.28;;;16.88;74.50
33506;BME280;19843;51.040;13.782;2023-07-31T03:12:03;99978.13;;;16.92;75.96
33506;BME280;19843;51.040;13.782;2023-07-31T03:14:30;99976.13;;;16.96;75.86
33506;BME280;19843;51.040;13.782;2023-07-31T03:16:59;99984.59;;;16.99;74.83
33506;BME280;19843;51.040;13.782;2023-07-31T03:19:26;99983.41;;;17.04;73.53
33506;BME280;19843;51.040;13.782;2023-07-31T03:21:54;99976.25;;;17.21;71.68
33506;BME280;19843;51.040;13.782;2023-07-31T03:24:21;99978.69;;;17.26;71.41
33506;BME280;19843;51.040;13.782;2023-07-31T03:26:50;99976.63;;;17.15;70.60
33506;BME280;19843;51.040;13.782;2023-07-31T03:29:18;99979.13;;;17.35;70.85
33506;BME280;19843;51.040;13.782;2023-07-31T03:31:48;99985.56;;;17.32;70.17
33506;BME280;19843;51.040;13.782;2023-07-31T03:34:16;99994.84;;;17.29;71.40
33506;BME280;19843;51.040;13.782;2023-07-31T03:36:44;99990.41;;;17.31;69.89
33506;BME280;19843;51.040;13.782;2023-07-31T03:39:12;99988.34;;;17.21;70.92
33506;BME280;19843;51.040;13.782;2023-07-31T03:41:39;99995.66;;;17.33;70.69
33506;BME280;19843;51.040;13.782;2023-07-31T03:44:08;99990.06;;;17.44;71.27
33506;BME280;19843;51.040;13.782;2023-07-31T03:46:36;100006.81;;;17.11;72.88
33506;BME280;19843;51.040;13.782;2023-07-31T03:49:04;99994.88;;;17.39;72.86
33506;BME280;19843;51.040;13.782;2023-07-31T03:51:31;99991.66;;;17.41;74.20
33506;BME280;19843;51.040;13.782;2023-07-31T03:53:59;99984.25;;;17.11;76.60
33506;BME280;19843;51.040;13.782;2023-07-31T03:56:27;99983.72;;;16.88;80.01
33506;BME280;19843;51.040;13.782;2023-07-31T03:58:54;99991.94;;;17.14;80.56
33506;BME280;19843;51.040;13.782;2023-07-31T04:01:23;99987.13;;;17.19;80.24
33506;BME280;19843;51.040;13.782;2023-07-31T04:03:51;99988.66;;;17.05;81.50
33506;BME280;19843;51.040;13.782;2023-07-31T04:06:18;99988.78;;;17.30;80.74
33506;BME280;19843;51.040;13.782;2023-07-31T04:08:47;99974.63;;;17.23;81.06
33506;BME280;19843;51.040;13.782;2023-07-31T04:11:15;99968.50;;;17.03;83.08
33506;BME280;19843;51.040;13.782;2023-07-31T04:13:43;99974.16;;;17.03;84.23
33506;BME280;19843;51.040;13.782;2023-07-31T04:16:10;99972.56;;;17.06;84.19
33506;BME280;19843;51.040;13.782;2023-07-31T04:18:39;99972.91;;;16.97;85.10
33506;BME280;19843;51.040;13.782;2023-07-31T04:21:06;99971.16;;;16.75;88.30
33506;BME280;19843;51.040;13.782;2023-07-31T04:23:34;99967.13;;;16.76;89.22
33506;BME280;19843;51.040;13.782;2023-07-31T04:26:02;99968.03;;;16.87;89.81
33506;BME280;19843;51.040;13.782;2023-07-31T04:28:29;99966.34;;;16.79;90.25
33506;BME280;19843;51.040;13.782;2023-07-31T04:30:58;99957.16;;;16.89;90.13
33506;BME280;19843;51.040;13.782;2023-07-31T04:33:25;99960.34;;;16.84;89.74
33506;BME280;19843;51.040;13.782;2023-07-31T04:35:54;99959.91;;;16.78;92.79
33506;BME280;19843;51.040;13.782;2023-07-31T04:38:22;99960.38;;;16.87;92.38
33506;BME280;19843;51.040;13.782;2023-07-31T04:40:50;99958.41;;;16.99;93.01
33506;BME280;19843;51.040;13.782;2023-07-31T04:43:17;99951.66;;;17.14;91.13
33506;BME280;19843;51.040;13.782;2023-07-31T04:45:45;99947.19;;;17.06;92.50
33506;BME280;19843;51.040;13.782;2023-07-31T04:48:14;99947.09;;;16.88;93.83
33506;BME280;19843;51.040;13.782;2023-07-31T04:50:42;99941.56;;;17.13;92.90
33506;BME280;19843;51.040;13.782;2023-07-31T04:53:10;99939.47;;;16.96;93.47
33506;BME280;19843;51.040;13.782;2023-07-31T04:55:38;99937.59;;;16.55;94.89
33506;BME280;19843;51.040;13.782;2023-07-31T04:58:06;99946.69;;;16.86;97.08
33506;BME280;19843;51.040;13.782;2023-07-31T05:00:33;99938.31;;;17.07;96.02
33506;BME280;19843;51.040;13.782;2023-07-31T05:03:01;99934.16;;;16.80;97.34
33506;BME280;19843;51.040;13.782;2023-07-31T05:05:28;99937.13;;;16.46;99.46
33506;BME280;19843;51.040;13.782;2023-07-31T05:07:56;99931.59;;;16.60;98.92
33506;BME280;19843;51.040;13.782;2023-07-31T05:10:25;99939.84;;;16.91;97.34
33506;BME280;19843;51.040;13.782;2023-07-31T05:12:52;99939.19;;;17.19;93.48
33506;BME280;19843;51.040;13.782;2023-07-31T05:15:20;99931.53;;;17.23;92.07
33506;BME280;19843;51.040;13.782;2023-07-31T05:17:47;99941.09;;;17.04;94.13
33506;BME280;19843;51.040;13.782;2023-07-31T05:20:15;99932.22;;;16.91;94.08
33506;BME280;19843;51.040;13.782;2023-07-31T05:22:43;99935.16;;;17.20;91.87
33506;BME280;19843;51.040;13.782;2023-07-31T05:25:10;99919.03;;;17.20;92.78
33506;BME280;19843;51.040;13.782;2023-07-31T05:27:39;99930.16;;;16.81;94.15
33506;BME280;19843;51.040;13.782;2023-07-31T05:30:07;99923.28;;;16.78;95.25
33506;BME280;19843;51.040;13.782;2023-07-31T05:32:35;99923.38;;;17.03;94.91
33506;BME280;19843;51.040;13.782;2023-07-31T05:35:04;99921.84;;;17.17;91.65
33506;BME280;19843;51.040;13.782;2023-07-31T05:37:33;99924.16;;;16.93;90.77
33506;BME280;19843;51.040;13.782;2023-07-31T05:40:01;99910.22;;;17.29;90.14
33506;BME280;19843;51.040;13.782;2023-07-31T05:42:28;99923.91;;;17.30;89.22
33506;BME280;19843;51.040;13.782;2023-07-31T05:44:57;99916.25;;;17.31;90.82
33506;BME280;19843;51.040;13.782;2023-07-31T05:47:24;99907.00;;;17.41;89.81
33506;BME280;19843;51.040;13.782;2023-07-31T05:49:54;99919.56;;;17.61;87.35
33506;BME280;19843;51.040;13.782;2023-07-31T05:52:21;99916.31;;;17.59;86.42
33506;BME280;19843;51.040;13.782;2023-07-31T05:54:49;99904.69;;;17.82;86.99
33506;BME280;19843;51.040;13.782;2023-07-31T05:57:17;99915.09;;;17.43;90.16
33506;BME280;19843;51.040;13.782;2023-07-31T05:59:44;99904.97;;;17.34;89.73
33506;BME280;19843;51.040;13.782;2023-07-31T06:02:13;99917.88;;;17.35;91.52
33506;BME280;19843;51.040;13.782;2023-07-31T06:04:41;99906.16;;;17.30;91.45
33506;BME280;19843;51.040;13.782;2023-07-31T06:07:08;99902.13;;;17.27;89.94
33506;BME280;19843;51.040;13.782;2023-07-31T06:09:37;99908.25;;;17.47;90.51
33506;BME280;19843;51.040;13.782;2023-07-31T06:12:05;99911.47;;;17.49;90.41
33506;BME280;19843;51.040;13.782;2023-07-31T06:14:32;99895.38;;;17.71;86.69
33506;BME280;19843;51.040;13.782;2023-07-31T06:17:00;99893.81;;;17.81;86.33
33506;BME280;19843;51.040;13.782;2023-07-31T06:19:29;99894.97;;;17.58;88.06
33506;BME280;19843;51.040;13.782;2023-07-31T06:21:56;99897.84;;;17.87;86.15
33506;BME280;19843;51.040;13.782;2023-07-31T06:24:24;99909.84;;;17.55;87.94
33506;BME280;19843;51.040;13.782;2023-07-31T06:26:51;99910.34;;;17.79;87.18
33506;BME280;19843;51.040;13.782;2023-07-31T06:29:19;99904.28;;;17.98;83.92
33506;BME280;19843;51.040;13.782;2023-07-31T06:31:47;99906.72;;;17.96;85.06
33506;BME280;19843;51.040;13.782;2023-07-31T06:34:15;99904.28;;;17.84;84.71
33506;BME280;19843;51.040;13.782;2023-07-31T06:36:43;99896.22;;;18.04;82.63
33506;BME280;19843;51.040;13.782;2023-07-31T06:39:11;99895.44;;;18.10;82.67
33506;BME280;19843;51.040;13.782;2023-07-31T06:41:39;99915.19;;;18.03;83.32
33506;BME280;19843;51.040;13.782;2023-07-31T06:44:07;99899.47;;;18.06;82.23
33506;BME280;19843;51.040;13.782;2023-07-31T06:46:37;99904.31;;;18.02;83.49
33506;BME280;19843;51.040;13.782;2023-07-31T06:49:07;99901.88;;;18.07;82.18
33506;BME280;19843;51.040;13.782;2023-07-31T06:51:35;99889.75;;;18.03;82.94
33506;BME280;19843;51.040;13.782;2023-07-31T06:54:06;99896.22;;;18.04;83.34
33506;BME280;19843;51.040;13.782;2023-07-31T06:56:34;99892.53;;;18.50;80.04
33506;BME280;19843;51.040;13.782;2023-07-31T06:59:06;99898.56;;;18.73;78.92
33506;BME280;19843;51.040;13.782;2023-07-31T07:01:33;99899.38;;;18.59;77.79
33506;BME280;19843;51.040;13.782;2023-07-31T07:04:01;99892.16;;;18.44;80.98
33506;BME280;19843;51.040;13.782;2023-07-31T07:06:28;99901.00;;;18.75;77.91
33506;BME280;19843;51.040;13.782;2023-07-31T07:08:58;99896.56;;;18.56;78.94
33506;BME280;19843;51.040;13.782;2023-07-31T07:11:27;99898.59;;;18.70;79.40
33506;BME280;19843;51.040;13.782;2023-07-31T07:13:55;99894.44;;;19.03;76.67
33506;BME280;19843;51.040;13.782;2023-07-31T07:16:22;99896.50;;;18.91;76.24
33506;BME280;19843;51.040;13.782;2023-07-31T07:18:50;99900.50;;;19.01;77.35
33506;BME280;19843;51.040;13.782;2023-07-31T07:21:29;99899.31;;;18.95;76.66
33506;BME280;19843;51.040;13.782;2023-07-31T07:23:57;99905.59;;;19.38;73.97
33506;BME280;19843;51.040;13.782;2023-07-31T07:26:24;99898.84;;;19.11;76.15
33506;BME280;19843;51.040;13.782;2023-07-31T07:28:53;99900.66;;;19.53;74.83
33506;BME280;19843;51.040;13.782;2023-07-31T07:31:21;99890.13;;;19.61;73.84
33506;BME280;19843;51.040;13.782;2023-07-31T07:33:50;99890.28;;;19.29;73.94
33506;BME280;19843;51.040;13.782;2023-07-31T07:36:18;99891.16;;;19.11;73.87
33506;BME280;19843;51.040;13.782;2023-07-31T07:38:45;99892.91;;;19.64;73.94
33506;BME280;19843;51.040;13.782;2023-07-31T07:41:13;99888.16;;;20.06;72.39
33506;BME280;19843;51.040;13.782;2023-07-31T07:43:41;99884.66;;;19.84;73.94
33506;BME280;19843;51.040;13.782;2023-07-31T07:46:09;99891.38;;;19.45;73.21
33506;BME280;19843;51.040;13.782;2023-07-31T07:48:38;99881.81;;;19.88;73.17
33506;BME280;19843;51.040;13.782;2023-07-31T07:51:05;99890.50;;;19.56;71.10
33506;BME280;19843;51.040;13.782;2023-07-31T07:53:33;99900.03;;;19.87;71.80
33506;BME280;19843;51.040;13.782;2023-07-31T07:56:01;99895.59;;;19.16;72.38
33506;BME280;19843;51.040;13.782;2023-07-31T07:58:28;99891.53;;;19.21;72.67
33506;BME280;19843;51.040;13.782;2023-07-31T08:00:56;99901.03;;;19.55;73.31
33506;BME280;19843;51.040;13.782;2023-07-31T08:03:25;99899.38;;;19.65;73.25
33506;BME280;19843;51.040;13.782;2023-07-31T08:05:57;99909.50;;;19.55;71.56
33506;BME280;19843;51.040;13.782;2023-07-31T08:08:26;99897.91;;;19.98;70.61
33506;BME280;19843;51.040;13.782;2023-07-31T08:10:53;99900.22;;;19.51;72.90
33506;BME280;19843;51.040;13.782;2023-07-31T08:13:21;99910.13;;;19.91;72.46
33506;BME280;19843;51.040;13.782;2023-07-31T08:15:48;99899.44;;;20.13;68.96
33506;BME280;19843;51.040;13.782;2023-07-31T08:18:16;99903.59;;;20.46;71.20
33506;BME280;19843;51.040;13.782;2023-07-31T08:20:45;99912.78;;;20.61;68.92
33506;BME280;19843;51.040;13.782;2023-07-31T08:23:13;99906.28;;;20.61;69.22
33506;BME280;19843;51.040;13.782;2023-07-31T08:25:41;99909.97;;;20.58;67.68
33506;BME280;19843;51.040;13.782;2023-07-31T08:28:09;99904.31;;;20.54;69.37
33506;BME280;19843;51.040;13.782;2023-07-31T08:30:37;99898.75;;;20.43;68.99
33506;BME280;19843;51.040;13.782;2023-07-31T08:33:04;99913.97;;;20.15;70.84
33506;BME280;19843;51.040;13.782;2023-07-31T08:35:34;99899.69;;;20.26;70.02
33506;BME280;19843;51.040;13.782;2023-07-31T08:38:06;99900.34;;;20.44;68.89
33506;BME280;19843;51.040;13.782;2023-07-31T08:40:36;99902.09;;;20.31;68.92
33506;BME280;19843;51.040;13.782;2023-07-31T08:43:03;99904.88;;;20.38;70.97
33506;BME280;19843;51.040;13.782;2023-07-31T08:45:32;99903.41;;;20.64;69.59
33506;BME280;19843;51.040;13.782;2023-07-31T08:48:00;99900.47;;;20.30;71.25
33506;BME280;19843;51.040;13.782;2023-07-31T08:50:28;99884.94;;;20.49;68.64
33506;BME280;19843;51.040;13.782;2023-07-31T08:52:55;99903.19;;;20.44;68.29
33506;BME280;19843;51.040;13.782;2023-07-31T08:55:26;99897.09;;;20.01;68.86
33506;BME280;19843;51.040;13.782;2023-07-31T08:57:55;99897.44;;;20.10;69.86
33506;BME280;19843;51.040;13.782;2023-07-31T09:00:25;99903.75;;;20.25;69.71
33506;BME280;19843;51.040;13.782;2023-07-31T09:02:57;99898.06;;;20.32;69.77
33506;BME280;19843;51.040;13.782;2023-07-31T09:05:26;99904.88;;;19.90;70.23
33506;BME280;19843;51.040;13.782;2023-07-31T09:07:56;99905.03;;;19.65;71.19
33506;BME280;19843;51.040;13.782;2023-07-31T09:10:26;99907.78;;;19.79;69.19
33506;BME280;19843;51.040;13.782;2023-07-31T09:12:54;99909.78;;;19.82;70.08
33506;BME280;19843;51.040;13.782;2023-07-31T09:15:23;99905.25;;;20.40;68.53
33506;BME280;19843;51.040;13.782;2023-07-31T09:18:04;99905.00;;;19.72;70.29
33506;BME280;19843;51.040;13.782;2023-07-31T09:20:33;99895.13;;;19.94;69.14
33506;BME280;19843;51.040;13.782;2023-07-31T09:23:08;99902.44;;;19.92;68.85
33506;BME280;19843;51.040;13.782;2023-07-31T09:25:39;99893.75;;;20.13;69.73
33506;BME280;19843;51.040;13.782;2023-07-31T09:28:09;99894.59;;;20.10;69.67
33506;BME280;19843;51.040;13.782;2023-07-31T09:30:45;99887.25;;;20.16;69.59
33506;BME280;19843;51.040;13.782;2023-07-31T09:33:13;99881.56;;;20.16;68.43
33506;BME280;19843;51.040;13.782;2023-07-31T09:35:41;99886.59;;;20.43;68.01
33506;BME280;19843;51.040;13.782;2023-07-31T09:38:10;99875.09;;;20.16;66.75
33506;BME280;19843;51.040;13.782;2023-07-31T09:40:41;99877.47;;;20.25;66.67
33506;BME280;19843;51.040;13.782;2023-07-31T09:43:11;99874.78;;;20.07;67.88
33506;BME280;19843;51.040;13.782;2023-07-31T09:45:40;99874.03;;;20.44;65.79
33506;BME280;19843;51.040;13.782;2023-07-31T09:48:11;99871.38;;;20.26;67.60
33506;BME280;19843;51.040;13.782;2023-07-31T09:50:42;99867.41;;;20.61;65.95
33506;BME280;19843;51.040;13.782;2023-07-31T09:53:11;99877.47;;;20.21;66.61
33506;BME280;19843;51.040;13.782;2023-07-31T09:55:41;99871.00;;;20.65;66.01
33506;BME280;19843;51.040;13.782;2023-07-31T09:58:11;99875.63;;;20.49;66.91
33506;BME280;19843;51.040;13.782;2023-07-31T10:00:39;99864.38;;;20.38;66.25
33506;BME280;19843;51.040;13.782;2023-07-31T10:03:08;99868.31;;;20.06;66.75
33506;BME280;19843;51.040;13.782;2023-07-31T10:05:38;99866.13;;;20.25;66.25
33506;BME280;19843;51.040;13.782;2023-07-31T10:08:10;99865.63;;;20.33;66.58
33506;BME280;19843;51.040;13.782;2023-07-31T10:10:42;99862.47;;;20.28;66.14
33506;BME280;19843;51.040;13.782;2023-07-31T10:13:11;99862.75;;;20.78;64.75
33506;BME280;19843;51.040;13.782;2023-07-31T10:15:39;99850.53;;;20.47;67.12
33506;BME280;19843;51.040;13.782;2023-07-31T10:18:10;99861.28;;;20.21;66.05
33506;BME280;19843;51.040;13.782;2023-07-31T10:20:38;99858.16;;;20.54;66.60
33506;BME280;19843;51.040;13.782;2023-07-31T10:23:07;99853.38;;;20.47;66.58
33506;BME280;19843;51.040;13.782;2023-07-31T10:25:36;99854.00;;;20.96;64.05
33506;BME280;19843;51.040;13.782;2023-07-31T10:28:08;99844.03;;;20.84;63.88
33506;BME280;19843;51.040;13.782;2023-07-31T10:30:39;99836.91;;;21.03;63.72
33506;BME280;19843;51.040;13.782;2023-07-31T10:33:07;99845.47;;;21.00;64.10
33506;BME280;19843;51.040;13.782;2023-07-31T10:35:35;99846.31;;;20.96;64.45
33506;BME280;19843;51.040;13.782;2023-07-31T10:38:10;99826.66;;;20.41;63.47
33506;BME280;19843;51.040;13.782;2023-07-31T10:40:38;99835.78;;;20.93;63.91
33506;BME280;19843;51.040;13.782;2023-07-31T10:43:07;99833.09;;;20.83;64.43
33506;BME280;19843;51.040;13.782;2023-07-31T10:45:38;99834.59;;;21.52;62.02
33506;BME280;19843;51.040;13.782;2023-07-31T10:48:12;99829.41;;;21.47;62.37
33506;BME280;19843;51.040;13.782;2023-07-31T10:50:47;99832.53;;;21.56;62.07
33506;BME280;19843;51.040;13.782;2023-07-31T10:53:23;99823.78;;;21.94;61.47
33506;BME280;19843;51.040;13.782;2023-07-31T10:55:51;99810.03;;;22.36;60.70
33506;BME280;19843;51.040;13.782;2023-07-31T10:58:20;99817.19;;;21.50;64.06
33506;BME280;19843;51.040;13.782;2023-07-31T11:00:49;99820.94;;;21.43;62.50
33506;BME280;19843;51.040;13.782;2023-07-31T11:03:19;99817.25;;;21.46;62.06
33506;BME280;19843;51.040;13.782;2023-07-31T11:05:52;99812.97;;;21.35;63.21
33506;BME280;19843;51.040;13.782;2023-07-31T11:08:22;99809.38;;;21.81;63.31
33506;BME280;19843;51.040;13.782;2023-07-31T11:11:03;99818.59;;;21.38;63.11
33506;BME280;19843;51.040;13.782;2023-07-31T11:13:39;99805.75;;;21.27;62.63
33506;BME280;19843;51.040;13.782;2023-07-31T11:16:07;99807.72;;;21.33;62.37
33506;BME280;19843;51.040;13.782;2023-07-31T11:18:35;99798.28;;;21.90;61.64
33506;BME280;19843;51.040;13.782;2023-07-31T11:21:03;99794.47;;;21.50;63.73
33506;BME280;19843;51.040;13.782;2023-07-31T11:23:30;99799.88;;;21.41;63.38
33506;BME280;19843;51.040;13.782;2023-07-31T11:25:59;99791.88;;;21.59;63.82
33506;BME280;19843;51.040;13.782;2023-07-31T11:28:31;99801.63;;;21.85;63.68
33506;BME280;19843;51.040;13.782;2023-07-31T11:31:01;99795.50;;;21.87;65.36
33506;BME280;19843;51.040;13.782;2023-07-31T11:33:29;99794.38;;;22.04;64.59
33506;BME280;19843;51.040;13.782;2023-07-31T11:35:57;99808.47;;;21.07;66.49
33506;BME280;19843;51.040;13.782;2023-07-31T11:38:26;99801.44;;;21.45;68.80
33506;BME280;19843;51.040;13.782;2023-07-31T11:40:54;99797.78;;;21.72;63.81
33506;BME280;19843;51.040;13.782;2023-07-31T11:43:23;99800.56;;;22.22;63.54
33506;BME280;19843;51.040;13.782;2023-07-31T11:45:52;99786.16;;;22.10;65.18
33506;BME280;19843;51.040;13.782;2023-07-31T11:48:22;99789.56;;;22.01;63.85
33506;BME280;19843;51.040;13.782;2023-07-31T11:50:51;99782.09;;;23.10;61.20
33506;BME280;19843;51.040;13.782;2023-07-31T11:53:23;99762.72;;;23.21;60.03
33506;BME280;19843;51.040;13.782;2023-07-31T11:55:53;99773.31;;;23.21;59.25
33506;BME280;19843;51.040;13.782;2023-07-31T11:58:21;99758.06;;;23.80;58.31
33506;BME280;19843;51.040;13.782;2023-07-31T12:00:49;99763.38;;;22.93;60.83
33506;BME280;19843;51.040;13.782;2023-07-31T12:03:17;99763.69;;;23.67;57.72
33506;BME280;19843;51.040;13.782;2023-07-31T12:05:48;99757.16;;;23.83;57.52
33506;BME280;19843;51.040;13.782;2023-07-31T12:08:16;99753.75;;;24.34;57.14
33506;BME280;19843;51.040;13.782;2023-07-31T12:10:45;99753.19;;;23.64;59.68
33506;BME280;19843;51.040;13.782;2023-07-31T12:13:20;99738.53;;;24.40;57.43
33506;BME280;19843;51.040;13.782;2023-07-31T12:15:53;99742.94;;;23.67;59.40
33506;BME280;19843;51.040;13.782;2023-07-31T12:18:22;99746.22;;;23.98;58.82
33506;BME280;19843;51.040;13.782;2023-07-31T12:20:54;99745.56;;;23.25;59.76
33506;BME280;19843;51.040;13.782;2023-07-31T12:23:24;99740.53;;;22.96;59.84
33506;BME280;19843;51.040;13.782;2023-07-31T12:26:00;99728.91;;;22.71;58.36
33506;BME280;19843;51.040;13.782;2023-07-31T12:28:28;99730.00;;;23.13;58.98
33506;BME280;19843;51.040;13.782;2023-07-31T12:30:57;99730.09;;;23.42;57.93
33506;BME280;19843;51.040;13.782;2023-07-31T12:33:31;99706.78;;;23.80;57.69
33506;BME280;19843;51.040;13.782;2023-07-31T12:36:03;99705.44;;;23.68;56.61
33506;BME280;19843;51.040;13.782;2023-07-31T12:38:31;99702.09;;;24.32;54.65
33506;BME280;19843;51.040;13.782;2023-07-31T12:41:00;99706.78;;;24.93;55.06
33506;BME280;19843;51.040;13.782;2023-07-31T12:43:28;99704.06;;;25.02;52.91
33506;BME280;19843;51.040;13.782;2023-07-31T12:45:55;99705.97;;;24.67;53.09
33506;BME280;19843;51.040;13.782;2023-07-31T12:48:23;99696.88;;;24.43;54.91
33506;BME280;19843;51.040;13.782;2023-07-31T12:50:50;99693.88;;;24.88;53.81
33506;BME280;19843;51.040;13.782;2023-07-31T12:53:20;99683.66;;;24.07;53.13
33506;BME280;19843;51.040;13.782;2023-07-31T12:55:47;99682.75;;;23.48;53.67